Time;durP1;ratioP1;P1;durP2;ratioP2;P2;SDS_P1;SDS_P2;PMS_P1;PMS_P2;Temp;Humidity;BMP_temperature;BMP_pressure;BME280_temperature;BME280_humidity;BME280_pressure;Samples;Min_cycle;Max_cycle;Signal;HPM_P1;HPM_P2
2021/01/13 04:15:19;;;;;;;2.90;2.47;;;-13.60;99.90;;;;;;4955884;29;20138;-74
2021/01/13 04:17:48;;;;;;;1.77;1.67;;;-13.60;99.90;;;;;;4954827;29;20199;-74
2021/01/13 04:20:15;;;;;;;1.33;1.33;;;-13.60;99.90;;;;;;4956191;29;20055;-75
2021/01/13 04:22:41;;;;;;;3.30;2.25;;;-13.70;99.90;;;;;;4955754;28;20031;-74
2021/01/13 04:25:07;;;;;;;2.38;1.58;;;-13.60;99.90;;;;;;4956072;28;20029;-73
2021/01/13 04:27:33;;;;;;;1.52;1.42;;;-13.60;99.90;;;;;;4955765;29;20451;-74
2021/01/13 04:29:59;;;;;;;3.30;2.15;;;-13.60;99.90;;;;;;4955970;29;20027;-74
2021/01/13 04:32:25;;;;;;;1.50;1.50;;;-13.70;99.90;;;;;;4955663;29;20094;-73
2021/01/13 04:34:51;;;;;;;3.22;2.10;;;-13.70;99.90;;;;;;4955764;29;20028;-72
2021/01/13 04:37:18;;;;;;;2.95;2.05;;;-13.60;99.90;;;;;;4955689;28;20031;-72
2021/01/13 04:39:44;;;;;;;1.70;1.60;;;-13.60;99.90;;;;;;4955608;28;20478;-74
2021/01/13 04:42:12;;;;;;;1.50;1.45;;;-13.60;99.90;;;;;;4955707;29;20116;-75
2021/01/13 04:44:57;;;;;;;1.35;1.33;;;-13.60;99.90;;;;;;4955767;29;20414;-75
2021/01/13 04:47:46;;;;;;;3.65;2.35;;;-13.60;99.90;;;;;;4955966;29;20027;-74
2021/01/13 04:50:15;;;;;;;1.92;1.75;;;-13.60;99.90;;;;;;4955665;28;20019;-75
2021/01/13 04:52:42;;;;;;;3.45;1.60;;;-13.60;99.90;;;;;;4955387;29;20058;-75
2021/01/13 04:55:21;;;;;;;1.80;1.70;;;-13.60;99.90;;;;;;4955588;28;20110;-74
2021/01/13 04:58:08;;;;;;;1.92;1.83;;;-13.60;99.90;;;;;;4955673;28;20559;-74
2021/01/13 05:01:11;;;;;;;2.05;1.88;;;-13.60;99.90;;;;;;4955375;28;20383;-74
2021/01/13 05:03:42;;;;;;;1.98;1.65;;;-13.60;99.90;;;;;;4955298;28;20051;-80
2021/01/13 05:06:46;;;;;;;1.90;1.80;;;-13.70;99.90;;;;;;4955373;28;20034;-74
2021/01/13 05:09:12;;;;;;;1.88;1.77;;;-13.70;99.90;;;;;;4955430;28;20031;-77
2021/01/13 05:11:47;;;;;;;1.58;1.48;;;-13.70;99.90;;;;;;4954993;29;20353;-74
2021/01/13 05:14:14;;;;;;;1.92;1.65;;;-13.80;99.90;;;;;;4954947;29;20039;-77
2021/01/13 05:16:49;;;;;;;2.47;1.63;;;-13.80;99.90;;;;;;4954828;29;20066;-73
2021/01/13 05:19:30;;;;;;;2.20;2.00;;;-13.80;99.90;;;;;;4954834;28;20075;-73
2021/01/13 05:22:00;;;;;;;2.35;1.88;;;-13.80;99.90;;;;;;4954766;28;20023;-73
2021/01/13 05:24:28;;;;;;;;;;;-13.80;99.90;;;;;;4955330;29;20090;-74
2021/01/13 05:27:02;;;;;;;2.85;1.95;;;-13.80;99.90;;;;;;4955205;28;20013;-73
2021/01/13 05:29:38;;;;;;;1.70;1.60;;;-13.90;99.90;;;;;;4954758;29;20023;-73
2021/01/13 05:32:06;;;;;;;2.67;1.92;;;-13.90;99.90;;;;;;4954790;29;20475;-74
2021/01/13 05:34:36;;;;;;;2.28;2.17;;;-13.90;99.90;;;;;;4954620;29;20505;-70
2021/01/13 05:37:18;;;;;;;1.60;1.50;;;-13.90;99.90;;;;;;4954650;29;20123;-75
2021/01/13 05:39:50;;;;;;;1.92;1.70;;;-13.90;99.90;;;;;;4954549;28;20057;-77
2021/01/13 05:42:18;;;;;;;1.50;1.40;;;-13.90;99.90;;;;;;4954688;29;20030;-71
2021/01/13 05:44:46;;;;;;;2.35;1.98;;;-13.70;99.90;;;;;;4954487;28;20023;-74
2021/01/13 05:47:59;;;;;;;2.88;1.92;;;-13.50;99.90;;;;;;4954747;29;20034;-75
2021/01/13 05:50:25;;;;;;;1.55;1.48;;;-13.60;99.90;;;;;;4954407;28;20031;-72
2021/01/13 05:52:55;;;;;;;6.93;2.33;;;-12.80;99.90;;;;;;4954186;29;20102;-77
2021/01/13 05:55:22;;;;;;;2.47;2.17;;;-13.30;99.90;;;;;;4954371;29;20388;-72
2021/01/13 05:58:00;;;;;;;1.67;1.58;;;-13.50;99.90;;;;;;4954002;28;20039;-71
2021/01/13 06:00:27;;;;;;;2.08;1.98;;;-13.60;99.90;;;;;;4954034;29;20027;-72
2021/01/13 06:03:01;;;;;;;2.90;1.73;;;-13.70;99.90;;;;;;4953372;29;20118;-72
2021/01/13 06:05:29;;;;;;;3.78;1.75;;;-13.80;99.90;;;;;;4954176;28;20110;-72
2021/01/13 06:08:03;;;;;;;2.88;1.63;;;-13.90;99.90;;;;;;4954345;28;20122;-72
2021/01/13 06:10:32;;;;;;;3.15;2.20;;;-13.90;99.90;;;;;;4954174;29;20026;-71
2021/01/13 06:13:05;;;;;;;1.90;1.80;;;-14.00;99.90;;;;;;4953954;29;20027;-73
2021/01/13 06:15:31;;;;;;;1.55;1.45;;;-14.00;99.90;;;;;;4953466;29;20067;-74
2021/01/13 06:17:59;;;;;;;1.55;1.45;;;-14.00;99.90;;;;;;4953475;29;20059;-72
2021/01/13 06:20:30;;;;;;;2.67;1.95;;;-14.10;99.90;;;;;;4953667;28;20023;-69
2021/01/13 06:22:58;;;;;;;1.83;1.73;;;-14.10;99.90;;;;;;4953917;28;20020;-71
2021/01/13 06:25:25;;;;;;;1.60;1.50;;;-14.10;99.90;;;;;;4954250;29;20027;-71
2021/01/13 06:27:57;;;;;;;3.17;2.03;;;-14.00;99.90;;;;;;4953807;29;20038;-74
2021/01/13 06:30:28;;;;;;;3.25;2.10;;;-13.90;99.90;;;;;;4954115;29;20054;-73
2021/01/13 06:33:20;;;;;;;3.75;2.55;;;-13.20;99.90;;;;;;4953315;29;20101;-74
2021/01/13 06:36:04;;;;;;;1.90;1.80;;;-13.60;99.90;;;;;;4950408;29;20478;-74
2021/01/13 06:38:52;;;;;;;2.38;1.75;;;-13.80;99.90;;;;;;4953105;28;20503;-74
2021/01/13 06:41:19;;;;;;;3.72;2.90;;;-13.90;99.90;;;;;;4953305;28;20115;-74
2021/01/13 06:44:02;;;;;;;1.90;1.77;;;-13.90;99.90;;;;;;4953095;29;20059;-74
2021/01/13 06:46:29;;;;;;;2.42;1.50;;;-13.90;99.90;;;;;;4953552;28;20023;-73
2021/01/13 06:48:55;;;;;;;2.00;1.80;;;-14.00;99.90;;;;;;4953759;29;20165;-73
2021/01/13 06:51:23;;;;;;;1.70;1.60;;;-14.00;99.90;;;;;;4953705;29;20040;-73
2021/01/13 06:53:50;;;;;;;1.80;1.70;;;-14.00;99.90;;;;;;4953259;29;20027;-73
2021/01/13 06:56:17;;;;;;;5.75;2.50;;;-14.00;99.90;;;;;;4953627;29;20028;-71
2021/01/13 06:59:00;;;;;;;3.33;2.40;;;-13.90;99.90;;;;;;4952280;29;20114;-73
2021/01/13 07:01:28;;;;;;;2.53;2.20;;;-14.00;99.90;;;;;;4953690;29;20075;-73
2021/01/13 07:04:01;;;;;;;2.15;1.92;;;-13.90;99.90;;;;;;4953793;29;20134;-72
2021/01/13 07:06:28;;;;;;;1.77;1.67;;;-13.90;99.90;;;;;;4953710;29;20498;-74
2021/01/13 07:08:54;;;;;;;1.80;1.70;;;-13.90;99.90;;;;;;4953368;29;20479;-70
2021/01/13 07:11:21;;;;;;;1.67;1.58;;;-13.70;99.90;;;;;;4953657;29;20418;-80
2021/01/13 07:13:54;;;;;;;2.30;2.10;;;-13.10;99.90;;;;;;4953419;29;20070;-75
2021/01/13 07:16:30;;;;;;;2.03;1.85;;;-11.70;99.90;;;;;;4953519;29;20027;-71
2021/01/13 07:19:06;;;;;;;5.57;2.03;;;-12.00;99.90;;;;;;4953213;29;20078;-71
2021/01/13 07:21:40;;;;;;;1.85;1.75;;;-12.90;99.90;;;;;;4953238;28;20114;-70
2021/01/13 07:24:13;;;;;;;1.60;1.50;;;-13.40;99.90;;;;;;4953637;28;20423;-70
2021/01/13 07:26:41;;;;;;;1.65;1.55;;;-13.50;99.90;;;;;;4953451;29;20024;-72
2021/01/13 07:29:07;;;;;;;1.73;1.65;;;-13.70;99.90;;;;;;4953602;29;20034;-75
2021/01/13 07:31:34;;;;;;;1.40;1.40;;;-13.70;99.90;;;;;;4953483;29;20023;-71
2021/01/13 07:34:12;;;;;;;1.90;1.80;;;-13.70;99.90;;;;;;4953428;29;20070;-70
2021/01/13 07:36:40;;;;;;;2.13;1.98;;;-13.80;99.90;;;;;;4953693;29;20375;-70
2021/01/13 07:39:08;;;;;;;1.75;1.65;;;-13.80;99.90;;;;;;4953215;29;20372;-70
2021/01/13 07:41:48;;;;;;;3.10;1.83;;;-13.80;99.90;;;;;;4953494;29;20074;-70
2021/01/13 07:44:23;;;;;;;;;;;-13.80;99.90;;;;;;4953677;28;20032;-70
2021/01/13 07:47:01;;;;;;;2.40;1.88;;;-13.90;99.90;;;;;;4955952;28;19938;-71
2021/01/13 07:49:42;;;;;;;1.80;1.70;;;-13.90;99.90;;;;;;4956640;29;20032;-71
2021/01/13 07:52:09;;;;;;;1.63;1.52;;;-13.90;99.90;;;;;;4956720;29;20031;-70
2021/01/13 07:54:36;;;;;;;1.70;1.60;;;-14.00;99.90;;;;;;4956134;28;20128;-71
2021/01/13 07:57:06;;;;;;;2.63;1.80;;;-14.00;99.90;;;;;;4955841;29;20414;-71
2021/01/13 07:59:34;;;;;;;2.45;1.73;;;-14.00;99.90;;;;;;4953845;29;20498;-73
2021/01/13 08:02:36;;;;;;;1.70;1.60;;;-14.00;99.90;;;;;;4956384;28;20030;-75
2021/01/13 08:05:11;;;;;;;1.85;1.75;;;-13.20;99.90;;;;;;4956372;28;20027;-71
2021/01/13 08:07:41;;;;;;;1.50;1.45;;;-13.50;99.90;;;;;;4956530;28;20035;-69
2021/01/13 08:10:08;;;;;;;8.98;2.45;;;-13.70;99.90;;;;;;4956438;28;20023;-69
2021/01/13 08:13:09;;;;;;;1.80;1.70;;;-13.30;99.90;;;;;;4955547;28;20526;-69
2021/01/13 08:16:05;;;;;;;1.48;1.48;;;-13.00;99.90;;;;;;4955259;29;20051;-69
2021/01/13 08:19:10;;;;;;;2.42;2.15;;;-13.00;99.90;;;;;;4955902;29;20039;-70
2021/01/13 08:22:25;;;;;;;3.00;1.83;;;-13.20;99.90;;;;;;4955371;28;20498;-70
2021/01/13 08:24:29;;;;;;;3.40;1.75;;;-13.00;99.90;;;;;;4949220;29;20028;-69
2021/01/13 08:26:59;;;;;;;1.73;1.63;;;-13.20;99.90;;;;;;4953672;28;20031;-69
2021/01/13 08:29:36;;;;;;;4.88;2.20;;;-13.30;99.90;;;;;;4955567;29;20507;-69
2021/01/13 08:32:10;;;;;;;2.38;1.80;;;-13.10;99.50;;;;;;4956034;29;20109;-69
2021/01/13 08:34:45;;;;;;;1.80;1.58;;;-13.20;97.30;;;;;;4955280;29;20031;-69
2021/01/13 08:37:12;;;;;;;1.80;1.70;;;-13.30;99.90;;;;;;4955834;28;20106;-70
2021/01/13 08:39:38;;;;;;;1.88;1.75;;;-13.40;96.60;;;;;;4955623;29;20027;-70
2021/01/13 08:42:24;;;;;;;2.22;1.90;;;-13.50;98.10;;;;;;4955812;29;20077;-70
2021/01/13 08:44:53;;;;;;;2.08;1.88;;;-13.20;99.90;;;;;;4955226;29;20454;-70
2021/01/13 08:47:20;;;;;;;1.85;1.75;;;-13.20;99.90;;;;;;4956160;29;20034;-69
2021/01/13 08:49:46;;;;;;;2.33;2.13;;;-13.60;95.70;;;;;;4955467;29;20114;-70
2021/01/13 08:52:26;;;;;;;2.13;1.92;;;-13.80;97.40;;;;;;4955667;29;20023;-70
2021/01/13 08:54:54;;;;;;;1.87;1.77;;;-13.90;97.90;;;;;;4955415;29;20035;-70
2021/01/13 08:57:20;;;;;;;1.75;1.65;;;-13.90;98.80;;;;;;4954958;28;20385;-69
2021/01/13 08:59:48;;;;;;;2.47;2.00;;;-13.90;98.90;;;;;;4955817;28;20154;-71
2021/01/13 09:02:22;;;;;;;3.85;1.80;;;-13.90;99.90;;;;;;4955340;29;20023;-71
2021/01/13 09:05:00;;;;;;;2.42;1.65;;;-13.90;99.90;;;;;;4955237;29;20058;-71
2021/01/13 09:07:43;;;;;;;1.90;1.80;;;-14.00;99.30;;;;;;4955383;29;20030;-72
2021/01/13 09:10:13;;;;;;;1.65;1.55;;;-14.00;99.60;;;;;;4954779;29;20050;-70
2021/01/13 09:12:42;;;;;;;1.60;1.50;;;-14.00;98.60;;;;;;4952082;29;20485;-70
2021/01/13 09:15:08;;;;;;;2.20;1.75;;;-14.10;99.30;;;;;;4954417;29;20406;-70
2021/01/13 09:17:35;;;;;;;1.85;1.73;;;-14.10;99.40;;;;;;4954759;29;20123;-70
2021/01/13 09:20:05;;;;;;;2.60;1.90;;;-14.10;99.50;;;;;;4954389;29;20036;-69
2021/01/13 09:23:01;;;;;;;2.20;1.90;;;-14.10;99.70;;;;;;4954814;29;20027;-71
2021/01/13 09:25:43;;;;;;;2.03;1.83;;;-14.10;99.90;;;;;;4948088;28;20027;-72
2021/01/13 09:28:17;;;;;;;2.70;2.00;;;-14.00;99.90;;;;;;4953892;29;20024;-71
2021/01/13 09:30:43;;;;;;;1.70;1.60;;;-14.10;98.60;;;;;;4954567;28;20019;-71
2021/01/13 09:33:19;;;;;;;1.85;1.75;;;-14.10;98.40;;;;;;4954643;29;20086;-72
2021/01/13 09:35:46;;;;;;;1.85;1.75;;;-13.40;99.90;;;;;;4953692;29;20038;-71
2021/01/13 09:38:16;;;;;;;3.33;1.90;;;-13.60;99.90;;;;;;4954514;28;20086;-71
2021/01/13 09:41:01;;;;;;;1.92;1.83;;;-13.90;98.30;;;;;;4955030;29;20031;-71
2021/01/13 09:43:29;;;;;;;2.00;1.90;;;-14.10;98.80;;;;;;4954697;29;20027;-77
2021/01/13 09:46:05;;;;;;;1.65;1.55;;;-14.20;98.40;;;;;;4954714;29;20046;-72
2021/01/13 09:48:35;;;;;;;2.83;2.05;;;-11.20;99.90;;;;;;4954586;29;20114;-72
2021/01/13 09:51:04;;;;;;;3.35;3.05;;;-12.50;99.90;;;;;;4954675;29;20024;-77
2021/01/13 09:53:35;;;;;;;1.60;1.50;;;-13.30;99.90;;;;;;4954389;29;20230;-76
2021/01/13 09:56:06;;;;;;;2.25;1.95;;;-13.70;99.90;;;;;;4953760;29;20023;-73
2021/01/13 09:58:46;;;;;;;3.00;2.15;;;-14.00;99.90;;;;;;4953746;29;20491;-73
2021/01/13 10:01:38;;;;;;;2.00;1.90;;;-14.10;99.90;;;;;;4953423;29;20027;-73
2021/01/13 10:04:11;;;;;;;1.80;1.70;;;-14.20;99.90;;;;;;4950802;28;20027;-77
2021/01/13 10:06:41;;;;;;;1.67;1.58;;;-14.20;99.90;;;;;;4953726;29;20027;-78
2021/01/13 10:09:13;;;;;;;2.03;1.83;;;-14.30;98.70;;;;;;4953140;28;20023;-79
2021/01/13 10:11:39;;;;;;;2.88;1.85;;;-14.30;99.90;;;;;;4953872;28;20023;-79
2021/01/13 10:14:06;;;;;;;1.50;1.50;;;-14.30;99.90;;;;;;4953963;28;20407;-78
2021/01/13 10:16:39;;;;;;;1.88;1.77;;;-14.30;99.90;;;;;;4953994;28;20027;-74
2021/01/13 10:19:04;;;;;;;2.45;1.58;;;-14.40;99.20;;;;;;4953594;29;20043;-78
2021/01/13 10:21:48;;;;;;;1.50;1.40;;;-14.40;99.90;;;;;;4962249;29;20042;-79
2021/01/13 10:24:16;;;;;;;1.70;1.60;;;-14.40;99.90;;;;;;4952434;29;20471;-78
2021/01/13 10:26:47;;;;;;;2.10;2.00;;;-14.50;99.90;;;;;;4952723;29;20526;-78
2021/01/13 10:29:19;;;;;;;2.95;2.10;;;-14.50;99.90;;;;;;4953356;28;20102;-78
2021/01/13 10:31:45;;;;;;;2.92;2.53;;;-14.50;99.90;;;;;;4953511;28;20020;-78
2021/01/13 10:34:12;;;;;;;3.88;1.90;;;-14.40;99.90;;;;;;4953811;29;20407;-78
2021/01/13 10:36:45;;;;;;;1.92;1.80;;;-14.40;99.90;;;;;;4954193;29;20398;-77
2021/01/13 10:39:26;;;;;;;6.07;2.40;;;-14.40;99.80;;;;;;4953644;29;20039;-77
2021/01/13 10:41:57;;;;;;;1.50;1.40;;;-14.40;99.90;;;;;;4953612;29;20111;-76
2021/01/13 10:44:27;;;;;;;2.15;2.00;;;-14.40;99.90;;;;;;4954081;29;20027;-77
2021/01/13 10:46:59;;;;;;;1.90;1.65;;;-14.40;99.80;;;;;;4953722;29;20031;-77
2021/01/13 10:49:26;;;;;;;2.00;1.70;;;-14.30;99.90;;;;;;4953956;29;20027;-77
2021/01/13 10:51:55;;;;;;;1.70;1.60;;;-14.30;99.90;;;;;;4953678;29;20035;-77
2021/01/13 10:54:32;;;;;;;2.25;2.08;;;-14.40;99.30;;;;;;4953606;29;20039;-78
2021/01/13 10:57:03;;;;;;;3.50;2.00;;;-14.30;99.90;;;;;;4953915;29;20023;-78
2021/01/13 10:59:30;;;;;;;2.38;1.90;;;-14.30;99.80;;;;;;4953579;29;20042;-79
2021/01/13 11:02:04;;;;;;;1.50;1.40;;;-14.30;99.90;;;;;;4953518;28;20031;-79
2021/01/13 11:04:32;;;;;;;1.58;1.48;;;-14.30;99.10;;;;;;4953946;28;20031;-78
2021/01/13 11:07:18;;;;;;;5.22;2.45;;;-14.20;98.10;;;;;;4953610;28;20055;-78
2021/01/13 11:09:51;;;;;;;2.30;1.90;;;-14.20;98.50;;;;;;4953638;28;20031;-78
2021/01/13 11:12:19;;;;;;;2.38;2.17;;;-14.20;99.00;;;;;;4953632;28;20043;-77
2021/01/13 11:14:47;;;;;;;1.73;1.63;;;-14.20;98.80;;;;;;4953275;28;20418;-77
2021/01/13 11:17:26;;;;;;;1.83;1.73;;;-14.30;98.80;;;;;;4953791;28;20023;-77
2021/01/13 11:19:51;;;;;;;2.58;1.85;;;-14.30;99.00;;;;;;4954962;28;20054;-77
2021/01/13 11:22:18;;;;;;;2.45;2.28;;;-14.30;98.80;;;;;;4957589;28;20113;-77
2021/01/13 11:24:45;;;;;;;1.30;1.30;;;-14.30;99.40;;;;;;4957438;28;20365;-77
2021/01/13 11:27:14;;;;;;;2.20;1.67;;;-14.30;99.90;;;;;;4957182;28;20043;-77
2021/01/13 11:29:43;;;;;;;1.85;1.75;;;-14.20;99.60;;;;;;4957104;29;20039;-77
2021/01/13 11:32:16;;;;;;;2.05;1.85;;;-14.20;99.90;;;;;;4957263;28;20027;-76
2021/01/13 11:34:50;;;;;;;1.98;1.83;;;-14.20;99.90;;;;;;4956290;28;20471;-78
2021/01/13 11:37:48;;;;;;;1.83;1.73;;;-14.20;99.20;;;;;;4956764;28;20051;-78
2021/01/13 11:40:33;;;;;;;1.77;1.67;;;-14.10;99.60;;;;;;4943666;29;20080;-78
2021/01/13 11:43:36;;;;;;;2.10;1.90;;;-14.00;99.60;;;;;;4955386;29;20028;-77
2021/01/13 11:46:06;;;;;;;2.55;1.90;;;-14.10;97.70;;;;;;4955724;29;20038;-76
2021/01/13 11:48:40;;;;;;;;;;;-14.00;99.20;;;;;;4941977;29;20028;-77
2021/01/13 11:51:11;;;;;;;1.88;1.77;;;-14.00;98.60;;;;;;4937280;29;19907;-77
2021/01/13 11:53:37;;;;;;;1.65;1.55;;;-14.00;99.30;;;;;;4937708;29;20111;-77
2021/01/13 11:56:04;;;;;;;9.55;2.15;;;-13.90;98.60;;;;;;4944283;29;20082;-77
2021/01/13 11:58:31;;;;;;;2.35;1.92;;;-13.90;99.00;;;;;;4956548;28;20490;-77
2021/01/13 12:00:57;;;;;;;3.35;2.13;;;-13.90;98.20;;;;;;4956554;29;20368;-77
2021/01/13 12:03:24;;;;;;;3.40;2.17;;;-13.90;97.60;;;;;;4955395;29;20034;-76
2021/01/13 12:05:49;;;;;;;1.88;1.77;;;-13.90;97.60;;;;;;4955708;29;20058;-78
2021/01/13 12:08:20;;;;;;;2.08;1.77;;;-13.90;97.60;;;;;;4955589;29;20059;-76
2021/01/13 12:10:53;;;;;;;2.08;1.88;;;-13.90;98.10;;;;;;4955544;29;20035;-75
2021/01/13 12:13:26;;;;;;;2.33;2.10;;;-13.90;98.90;;;;;;4956456;29;20027;-76
2021/01/13 12:16:03;;;;;;;1.92;1.83;;;-13.80;98.90;;;;;;4955293;28;20047;-80
2021/01/13 12:18:29;;;;;;;3.45;1.77;;;-13.80;98.00;;;;;;4956100;28;20053;-78
2021/01/13 12:21:00;;;;;;;2.88;1.95;;;-13.80;98.70;;;;;;4955824;29;20019;-78
2021/01/13 12:23:36;;;;;;;3.03;2.25;;;-13.80;97.80;;;;;;4956300;29;20039;-78
2021/01/13 12:26:27;;;;;;;2.30;2.10;;;-13.80;98.90;;;;;;4955604;28;20053;-78
2021/01/13 12:28:55;;;;;;;2.47;2.28;;;-13.70;97.00;;;;;;4955812;28;20031;-78
2021/01/13 12:31:22;;;;;;;1.92;1.52;;;-13.80;96.80;;;;;;4954445;28;20122;-79
2021/01/13 12:33:56;;;;;;;2.50;2.03;;;-13.80;95.30;;;;;;4952542;28;20390;-78
2021/01/13 12:36:24;;;;;;;2.65;2.00;;;-13.20;99.90;;;;;;4954351;29;20027;-78
2021/01/13 12:38:51;;;;;;;1.75;1.65;;;-13.40;99.90;;;;;;4952610;28;20046;-78
2021/01/13 12:41:24;;;;;;;2.58;1.77;;;-13.50;99.90;;;;;;4954915;28;20023;-78
2021/01/13 12:43:51;;;;;;;3.95;2.05;;;-13.60;99.90;;;;;;4955320;29;20035;-78
2021/01/13 12:46:29;;;;;;;2.20;2.00;;;-13.60;99.90;;;;;;4955795;29;20024;-78
2021/01/13 12:48:56;;;;;;;4.53;2.05;;;-13.00;99.90;;;;;;4955236;29;20027;-78
2021/01/13 12:51:22;;;;;;;2.15;1.95;;;-12.60;99.90;;;;;;4955395;29;20023;-77
2021/01/13 12:53:48;;;;;;;6.60;2.28;;;-12.50;99.90;;;;;;4955004;29;20031;-76
2021/01/13 12:56:30;;;;;;;2.00;1.90;;;-13.00;99.90;;;;;;4955387;28;20025;-75
2021/01/13 12:58:58;;;;;;;2.58;1.90;;;-13.30;99.90;;;;;;4955082;29;20039;-76
2021/01/13 13:01:25;;;;;;;1.73;1.63;;;-13.00;99.90;;;;;;4954787;29;20023;-78
2021/01/13 13:03:51;;;;;;;3.50;2.35;;;-13.00;99.90;;;;;;4954778;29;20491;-78
2021/01/13 13:06:27;;;;;;;2.00;1.90;;;-11.90;99.90;;;;;;4955916;29;20032;-73
2021/01/13 13:08:55;;;;;;;2.70;1.80;;;-11.60;99.90;;;;;;4954917;28;20613;-75
2021/01/13 13:11:22;;;;;;;2.92;1.90;;;-10.10;99.90;;;;;;4954792;29;20460;-75
2021/01/13 13:13:48;;;;;;;1.85;1.73;;;-10.10;99.90;;;;;;4954725;28;20023;-74
2021/01/13 13:16:14;;;;;;;3.03;1.90;;;-11.20;99.90;;;;;;4954856;28;20065;-74
2021/01/13 13:18:39;;;;;;;1.65;1.55;;;-12.30;99.90;;;;;;4954890;28;20043;-74
2021/01/13 13:21:09;;;;;;;3.92;2.15;;;-13.00;99.80;;;;;;4955088;28;20590;-74
2021/01/13 13:23:36;;;;;;;2.30;2.05;;;-13.50;98.70;;;;;;4954918;28;20027;-74
2021/01/13 13:26:03;;;;;;;1.70;1.60;;;-13.70;97.50;;;;;;4954650;28;20027;-74
2021/01/13 13:28:28;;;;;;;3.20;1.83;;;-13.90;94.50;;;;;;4955195;28;20027;-74
2021/01/13 13:30:54;;;;;;;3.78;1.63;;;-14.10;94.70;;;;;;4954863;28;20070;-75
2021/01/13 13:33:20;;;;;;;2.50;1.98;;;-14.30;94.10;;;;;;4954508;28;20490;-74
2021/01/13 13:35:46;;;;;;;2.00;1.67;;;-14.30;95.20;;;;;;4954738;29;20042;-74
2021/01/13 13:38:11;;;;;;;3.40;2.13;;;-14.20;95.90;;;;;;4954621;28;20039;-74
2021/01/13 13:40:37;;;;;;;1.90;1.80;;;-14.20;95.90;;;;;;4954767;28;20364;-74
2021/01/13 13:43:03;;;;;;;1.45;1.35;;;-14.20;94.40;;;;;;4954536;28;20386;-74
2021/01/13 13:45:29;;;;;;;2.28;1.90;;;-14.20;93.60;;;;;;4954862;28;20023;-74
2021/01/13 13:47:55;;;;;;;2.00;1.90;;;-14.30;93.30;;;;;;4954386;29;20023;-74
2021/01/13 13:50:20;;;;;;;2.45;2.00;;;-14.40;94.60;;;;;;4954389;28;20031;-74
2021/01/13 13:52:46;;;;;;;1.73;1.60;;;-14.40;94.40;;;;;;4954486;29;20106;-74
2021/01/13 13:55:12;;;;;;;2.03;1.90;;;-14.40;95.10;;;;;;4954155;29;20031;-74
2021/01/13 13:57:37;;;;;;;3.42;1.90;;;-14.50;94.30;;;;;;4954254;28;20035;-74
2021/01/13 14:00:05;;;;;;;2.53;1.85;;;-14.50;94.90;;;;;;4954399;29;20042;-74
2021/01/13 14:02:31;;;;;;;1.65;1.55;;;-14.50;95.30;;;;;;4954551;28;20077;-74
2021/01/13 14:04:56;;;;;;;3.88;2.00;;;-14.50;95.60;;;;;;4953992;28;20391;-74
2021/01/13 14:07:22;;;;;;;2.20;2.00;;;-14.50;96.20;;;;;;4954139;28;20055;-74
2021/01/13 14:09:48;;;;;;;2.20;2.10;;;-14.50;96.80;;;;;;4953885;28;20027;-74
2021/01/13 14:12:13;;;;;;;4.07;2.30;;;-14.50;96.20;;;;;;4954313;29;20490;-75
2021/01/13 14:14:39;;;;;;;2.08;1.83;;;-14.40;98.60;;;;;;4953743;28;20049;-74
2021/01/13 14:17:05;;;;;;;1.83;1.63;;;-14.40;97.40;;;;;;4954252;29;20479;-74
2021/01/13 14:19:32;;;;;;;1.73;1.63;;;-14.40;96.90;;;;;;4953870;29;20035;-74
2021/01/13 14:21:58;;;;;;;2.30;2.08;;;-14.30;97.30;;;;;;4953996;29;20086;-74
2021/01/13 14:24:24;;;;;;;2.45;2.05;;;-14.20;97.40;;;;;;4940688;29;20032;-74
2021/01/13 14:26:50;;;;;;;2.50;2.30;;;-14.20;96.70;;;;;;4934421;29;20078;-74
2021/01/13 14:29:15;;;;;;;2.15;1.90;;;-14.20;96.70;;;;;;4935115;29;20030;-74
2021/01/13 14:31:41;;;;;;;1.85;1.75;;;-14.10;98.10;;;;;;4934645;29;20396;-74
2021/01/13 14:34:07;;;;;;;1.40;1.40;;;-14.00;98.50;;;;;;4934517;29;20098;-74
2021/01/13 14:36:33;;;;;;;1.95;1.85;;;-13.40;99.90;;;;;;4949578;29;20446;-71
2021/01/13 14:39:00;;;;;;;7.63;2.05;;;-13.00;99.90;;;;;;4952690;29;20035;-77
2021/01/13 14:41:30;;;;;;;2.75;1.95;;;-13.30;99.90;;;;;;4952956;29;20513;-71
2021/01/13 14:43:56;;;;;;;;;;;-13.50;99.40;;;;;;4947363;29;20439;-71
2021/01/13 14:46:22;;;;;;;2.25;2.03;;;-13.60;98.50;;;;;;4950492;28;19910;-70
2021/01/13 14:48:48;;;;;;;2.20;1.98;;;-13.60;98.10;;;;;;4953101;29;20027;-71
2021/01/13 14:51:14;;;;;;;3.60;2.20;;;-13.60;97.30;;;;;;4952899;29;20027;-71
2021/01/13 14:53:41;;;;;;;2.17;1.98;;;-13.80;95.70;;;;;;4953479;28;20152;-70
2021/01/13 14:56:07;;;;;;;2.40;2.03;;;-13.80;97.80;;;;;;4956024;29;20031;-71
2021/01/13 14:58:33;;;;;;;2.20;2.00;;;-13.70;97.00;;;;;;4956993;28;20231;-73
2021/01/13 15:00:59;;;;;;;2.05;1.92;;;-13.80;96.00;;;;;;4956755;28;20468;-73
2021/01/13 15:03:25;;;;;;;2.03;1.83;;;-13.80;96.40;;;;;;4956608;29;20118;-73
2021/01/13 15:05:51;;;;;;;1.98;1.85;;;-13.80;96.30;;;;;;4957046;29;20110;-73
2021/01/13 15:08:17;;;;;;;1.67;1.58;;;-13.90;95.70;;;;;;4957279;29;20054;-73
2021/01/13 15:10:43;;;;;;;1.95;1.85;;;-13.90;95.80;;;;;;4956996;29;20078;-73
2021/01/13 15:13:08;;;;;;;1.88;1.77;;;-13.90;95.00;;;;;;4956825;29;20547;-73
2021/01/13 15:15:34;;;;;;;6.47;2.20;;;-13.90;96.00;;;;;;4956629;29;20119;-74
2021/01/13 15:18:00;;;;;;;2.10;2.00;;;-14.00;94.70;;;;;;4956650;29;20035;-73
2021/01/13 15:20:25;;;;;;;2.08;1.98;;;-14.00;95.80;;;;;;4956075;29;20487;-71
2021/01/13 15:22:51;;;;;;;3.15;2.10;;;-14.00;95.20;;;;;;4956380;29;20058;-76
2021/01/13 15:25:17;;;;;;;1.90;1.80;;;-13.90;95.60;;;;;;4956279;29;20055;-78
2021/01/13 15:27:44;;;;;;;2.35;1.92;;;-13.90;94.70;;;;;;4957358;29;20031;-77
2021/01/13 15:30:11;;;;;;;1.70;1.60;;;-14.00;94.70;;;;;;4956849;29;20634;-77
2021/01/13 15:32:37;;;;;;;3.95;1.98;;;-14.00;95.40;;;;;;4956942;29;20487;-78
2021/01/13 15:35:05;;;;;;;1.85;1.75;;;-13.90;95.80;;;;;;4956733;29;20059;-78
2021/01/13 15:37:31;;;;;;;3.13;2.22;;;-13.90;94.90;;;;;;4955132;29;20023;-77
2021/01/13 15:39:57;;;;;;;1.80;1.70;;;-14.00;93.80;;;;;;4950273;28;20039;-77
2021/01/13 15:42:23;;;;;;;2.25;2.05;;;-14.00;94.50;;;;;;4956599;28;20110;-77
2021/01/13 15:44:48;;;;;;;2.03;1.92;;;-13.90;95.10;;;;;;4956305;28;20089;-78
2021/01/13 15:47:17;;;;;;;2.47;1.98;;;-14.00;93.90;;;;;;4956319;29;20027;-77
2021/01/13 15:49:44;;;;;;;2.17;1.98;;;-14.00;94.20;;;;;;4956341;28;20438;-78
2021/01/13 15:52:20;;;;;;;3.88;2.08;;;-14.00;94.00;;;;;;4956427;28;20085;-78
2021/01/13 15:54:48;;;;;;;3.00;2.20;;;-14.00;93.90;;;;;;4956662;28;20035;-79
2021/01/13 15:57:31;;;;;;;2.58;1.88;;;-14.00;93.30;;;;;;4948862;28;20043;-77
2021/01/13 16:00:00;;;;;;;3.47;2.40;;;-14.10;93.10;;;;;;4955472;28;20035;-78
2021/01/13 16:02:27;;;;;;;1.23;1.23;;;-14.10;92.80;;;;;;4956247;29;20388;-78
2021/01/13 16:04:53;;;;;;;1.50;1.35;;;-14.20;92.50;;;;;;4956128;28;20067;-77
2021/01/13 16:07:23;;;;;;;2.30;1.95;;;-14.20;92.50;;;;;;4955208;28;20029;-74
2021/01/13 16:09:49;;;;;;;2.08;1.98;;;-14.30;92.70;;;;;;4955907;28;20042;-78
2021/01/13 16:12:16;;;;;;;6.63;2.55;;;-14.20;93.10;;;;;;4955850;29;20110;-77
2021/01/13 16:14:44;;;;;;;2.40;2.20;;;-14.30;92.70;;;;;;4955884;28;20090;-77
2021/01/13 16:17:11;;;;;;;2.28;1.90;;;-14.30;92.30;;;;;;4955947;29;20111;-78
2021/01/13 16:19:36;;;;;;;2.38;1.80;;;-14.40;93.00;;;;;;4955838;28;20031;-75
2021/01/13 16:22:03;;;;;;;2.13;1.75;;;-14.40;93.00;;;;;;4955798;29;20023;-73
2021/01/13 16:24:30;;;;;;;1.70;1.60;;;-14.40;93.00;;;;;;4955371;29;20067;-72
2021/01/13 16:26:56;;;;;;;1.73;1.63;;;-14.40;92.60;;;;;;4955769;29;20086;-72
2021/01/13 16:29:22;;;;;;;2.95;1.60;;;-14.50;92.20;;;;;;4955738;29;20078;-72
2021/01/13 16:31:48;;;;;;;1.83;1.60;;;-14.60;92.10;;;;;;4955987;29;20027;-72
2021/01/13 16:34:17;;;;;;;2.20;2.00;;;-14.60;92.60;;;;;;4955802;29;20420;-72
2021/01/13 16:36:48;;;;;;;1.85;1.75;;;-14.60;93.10;;;;;;4955493;29;20038;-73
2021/01/13 16:39:14;;;;;;;1.77;1.67;;;-14.60;93.40;;;;;;4955361;28;20090;-75
2021/01/13 16:41:43;;;;;;;2.75;2.25;;;-14.60;92.90;;;;;;4955852;29;20069;-78
2021/01/13 16:44:22;;;;;;;1.48;1.42;;;-14.40;99.90;;;;;;4955463;28;20031;-79
2021/01/13 16:46:48;;;;;;;2.22;2.05;;;-14.30;97.40;;;;;;4955816;28;20110;-79
2021/01/13 16:49:14;;;;;;;2.13;1.92;;;-14.50;94.10;;;;;;4955557;29;20109;-79
2021/01/13 16:51:52;;;;;;;1.63;1.52;;;-14.50;93.50;;;;;;4955338;29;20035;-77
2021/01/13 16:54:21;;;;;;;1.63;1.52;;;-14.60;93.20;;;;;;4955347;29;20032;-77
2021/01/13 16:56:48;;;;;;;2.38;2.03;;;-14.20;99.90;;;;;;4953764;29;20447;-73
2021/01/13 16:59:19;;;;;;;2.15;1.95;;;-14.10;99.90;;;;;;4953712;28;20043;-73
2021/01/13 17:01:46;;;;;;;4.00;2.00;;;-14.50;93.30;;;;;;4954726;28;20034;-73
2021/01/13 17:04:16;;;;;;;3.83;2.67;;;-14.60;93.60;;;;;;4954920;28;20074;-74
2021/01/13 17:06:45;;;;;;;4.38;2.47;;;-14.70;93.30;;;;;;4955230;28;20038;-70
2021/01/13 17:09:11;;;;;;;2.50;2.30;;;-14.70;93.90;;;;;;4955263;28;20399;-71
2021/01/13 17:11:39;;;;;;;1.60;1.50;;;-13.60;99.90;;;;;;4953208;28;20066;-74